sensor_id;sensor_type;location;lat;lon;timestamp;P1;durP1;ratioP1;P2;durP2;ratioP2
19032;SDS011;9649;51.042;13.804;2023-10-19T00:02:30;10.07;;;4.93;;
19032;SDS011;9649;51.042;13.804;2023-10-19T00:07:34;11.17;;;4.80;;
19032;SDS011;9649;51.042;13.804;2023-10-19T00:12:37;7.77;;;4.47;;
19032;SDS011;9649;51.042;13.804;2023-10-19T00:17:40;14.93;;;4.97;;
19032;SDS011;9649;51.042;13.804;2023-10-19T00:22:47;8.67;;;4.80;;
19032;SDS011;9649;51.042;13.804;2023-10-19T00:27:50;10.50;;;4.70;;
19032;SDS011;9649;51.042;13.804;2023-10-19T00:32:53;7.77;;;4.53;;
19032;SDS011;9649;51.042;13.804;2023-10-19T00:37:58;9.40;;;5.17;;
19032;SDS011;9649;51.042;13.804;2023-10-19T00:43:28;11.00;;;4.80;;
19032;SDS011;9649;51.042;13.804;2023-10-19T00:48:34;11.50;;;5.13;;
19032;SDS011;9649;51.042;13.804;2023-10-19T00:53:38;7.73;;;4.77;;
19032;SDS011;9649;51.042;13.804;2023-10-19T00:58:42;9.10;;;4.77;;
19032;SDS011;9649;51.042;13.804;2023-10-19T01:03:53;10.13;;;4.50;;
19032;SDS011;9649;51.042;13.804;2023-10-19T01:08:58;9.70;;;4.90;;
19032;SDS011;9649;51.042;13.804;2023-10-19T01:14:17;8.23;;;5.17;;
19032;SDS011;9649;51.042;13.804;2023-10-19T01:19:20;8.77;;;4.73;;
19032;SDS011;9649;51.042;13.804;2023-10-19T01:24:25;9.53;;;5.07;;
19032;SDS011;9649;51.042;13.804;2023-10-19T01:29:41;9.07;;;5.00;;
19032;SDS011;9649;51.042;13.804;2023-10-19T01:34:44;9.77;;;5.33;;
19032;SDS011;9649;51.042;13.804;2023-10-19T01:39:48;8.07;;;5.27;;
19032;SDS011;9649;51.042;13.804;2023-10-19T01:44:54;10.93;;;5.00;;
19032;SDS011;9649;51.042;13.804;2023-10-19T01:49:57;7.87;;;4.77;;
19032;SDS011;9649;51.042;13.804;2023-10-19T01:55:01;12.47;;;5.30;;
19032;SDS011;9649;51.042;13.804;2023-10-19T02:00:10;9.50;;;4.90;;
19032;SDS011;9649;51.042;13.804;2023-10-19T02:05:18;8.80;;;4.93;;
19032;SDS011;9649;51.042;13.804;2023-10-19T02:10:24;9.37;;;5.40;;
19032;SDS011;9649;51.042;13.804;2023-10-19T02:15:28;11.80;;;5.50;;
19032;SDS011;9649;51.042;13.804;2023-10-19T02:20:31;10.53;;;5.80;;
19032;SDS011;9649;51.042;13.804;2023-10-19T02:25:42;10.33;;;5.77;;
19032;SDS011;9649;51.042;13.804;2023-10-19T02:30:46;12.00;;;6.00;;
19032;SDS011;9649;51.042;13.804;2023-10-19T02:35:49;11.77;;;6.40;;
19032;SDS011;9649;51.042;13.804;2023-10-19T02:40:54;9.97;;;6.40;;
19032;SDS011;9649;51.042;13.804;2023-10-19T02:45:57;10.50;;;6.30;;
19032;SDS011;9649;51.042;13.804;2023-10-19T02:51:00;12.07;;;6.50;;
19032;SDS011;9649;51.042;13.804;2023-10-19T02:56:14;11.97;;;6.63;;
19032;SDS011;9649;51.042;13.804;2023-10-19T03:01:20;10.97;;;6.70;;
19032;SDS011;9649;51.042;13.804;2023-10-19T03:06:30;12.97;;;6.30;;
19032;SDS011;9649;51.042;13.804;2023-10-19T03:11:36;14.77;;;6.93;;
19032;SDS011;9649;51.042;13.804;2023-10-19T03:16:39;15.27;;;7.27;;
19032;SDS011;9649;51.042;13.804;2023-10-19T03:21:43;13.20;;;7.27;;
19032;SDS011;9649;51.042;13.804;2023-10-19T03:26:51;15.40;;;7.17;;
19032;SDS011;9649;51.042;13.804;2023-10-19T03:31:55;12.70;;;7.80;;
19032;SDS011;9649;51.042;13.804;2023-10-19T03:37:00;12.60;;;7.77;;
19032;SDS011;9649;51.042;13.804;2023-10-19T03:42:07;18.33;;;8.87;;
19032;SDS011;9649;51.042;13.804;2023-10-19T03:47:10;16.77;;;9.60;;
19032;SDS011;9649;51.042;13.804;2023-10-19T03:52:15;19.63;;;9.97;;
19032;SDS011;9649;51.042;13.804;2023-10-19T03:57:26;22.17;;;11.13;;
19032;SDS011;9649;51.042;13.804;2023-10-19T04:02:31;20.90;;;10.87;;
19032;SDS011;9649;51.042;13.804;2023-10-19T04:07:39;19.83;;;11.10;;
19032;SDS011;9649;51.042;13.804;2023-10-19T04:12:43;19.77;;;12.00;;
19032;SDS011;9649;51.042;13.804;2023-10-19T04:17:47;23.67;;;13.07;;
19032;SDS011;9649;51.042;13.804;2023-10-19T04:22:50;18.93;;;13.23;;
19032;SDS011;9649;51.042;13.804;2023-10-19T04:27:56;24.60;;;15.70;;
19032;SDS011;9649;51.042;13.804;2023-10-19T04:32:59;32.90;;;17.97;;
19032;SDS011;9649;51.042;13.804;2023-10-19T04:38:03;35.87;;;19.50;;
19032;SDS011;9649;51.042;13.804;2023-10-19T04:43:09;41.40;;;22.53;;
19032;SDS011;9649;51.042;13.804;2023-10-19T04:48:16;45.17;;;23.30;;
19032;SDS011;9649;51.042;13.804;2023-10-19T04:53:22;47.37;;;25.70;;
19032;SDS011;9649;51.042;13.804;2023-10-19T04:58:42;46.07;;;25.30;;
19032;SDS011;9649;51.042;13.804;2023-10-19T05:03:52;52.50;;;29.00;;
19032;SDS011;9649;51.042;13.804;2023-10-19T05:09:21;52.03;;;29.63;;
19032;SDS011;9649;51.042;13.804;2023-10-19T05:15:16;58.03;;;29.53;;
19032;SDS011;9649;51.042;13.804;2023-10-19T05:20:27;56.90;;;29.73;;
19032;SDS011;9649;51.042;13.804;2023-10-19T05:26:00;59.23;;;30.10;;
19032;SDS011;9649;51.042;13.804;2023-10-19T05:37:20;55.97;;;30.40;;
19032;SDS011;9649;51.042;13.804;2023-10-19T05:43:11;60.03;;;30.93;;
19032;SDS011;9649;51.042;13.804;2023-10-19T05:54:09;50.33;;;29.37;;
19032;SDS011;9649;51.042;13.804;2023-10-19T05:59:49;56.40;;;29.07;;
19032;SDS011;9649;51.042;13.804;2023-10-19T06:11:17;58.67;;;30.87;;
19032;SDS011;9649;51.042;13.804;2023-10-19T06:17:20;65.17;;;32.63;;
19032;SDS011;9649;51.042;13.804;2023-10-19T06:22:51;53.93;;;31.60;;
19032;SDS011;9649;51.042;13.804;2023-10-19T06:28:35;68.43;;;33.43;;
19032;SDS011;9649;51.042;13.804;2023-10-19T06:33:53;63.70;;;33.43;;
19032;SDS011;9649;51.042;13.804;2023-10-19T06:39:20;59.63;;;32.63;;
19032;SDS011;9649;51.042;13.804;2023-10-19T06:51:22;63.93;;;34.87;;
19032;SDS011;9649;51.042;13.804;2023-10-19T06:56:42;67.23;;;34.67;;
19032;SDS011;9649;51.042;13.804;2023-10-19T07:02:07;63.53;;;34.00;;
19032;SDS011;9649;51.042;13.804;2023-10-19T07:07:18;61.13;;;33.87;;
19032;SDS011;9649;51.042;13.804;2023-10-19T07:12:35;65.47;;;35.17;;
19032;SDS011;9649;51.042;13.804;2023-10-19T07:17:51;64.27;;;35.30;;
19032;SDS011;9649;51.042;13.804;2023-10-19T07:23:11;66.23;;;35.90;;
19032;SDS011;9649;51.042;13.804;2023-10-19T07:28:42;68.37;;;34.50;;
19032;SDS011;9649;51.042;13.804;2023-10-19T07:34:03;63.90;;;35.27;;
19032;SDS011;9649;51.042;13.804;2023-10-19T07:39:31;59.13;;;31.30;;
19032;SDS011;9649;51.042;13.804;2023-10-19T07:50:33;64.53;;;34.43;;
19032;SDS011;9649;51.042;13.804;2023-10-19T07:56:03;66.97;;;34.50;;
19032;SDS011;9649;51.042;13.804;2023-10-19T08:14:27;59.77;;;34.43;;
19032;SDS011;9649;51.042;13.804;2023-10-19T08:19:53;66.13;;;34.97;;
19032;SDS011;9649;51.042;13.804;2023-10-19T08:25:05;57.63;;;32.80;;
19032;SDS011;9649;51.042;13.804;2023-10-19T08:30:58;64.50;;;36.00;;
19032;SDS011;9649;51.042;13.804;2023-10-19T08:36:29;55.63;;;30.60;;
19032;SDS011;9649;51.042;13.804;2023-10-19T08:41:51;55.97;;;31.57;;
19032;SDS011;9649;51.042;13.804;2023-10-19T08:47:04;47.43;;;28.67;;
19032;SDS011;9649;51.042;13.804;2023-10-19T08:52:15;44.13;;;27.43;;
19032;SDS011;9649;51.042;13.804;2023-10-19T08:57:51;43.03;;;26.97;;
19032;SDS011;9649;51.042;13.804;2023-10-19T09:03:35;44.83;;;27.43;;
19032;SDS011;9649;51.042;13.804;2023-10-19T09:10:38;32.20;;;20.90;;
19032;SDS011;9649;51.042;13.804;2023-10-19T09:15:21;36.80;;;23.27;;
19032;SDS011;9649;51.042;13.804;2023-10-19T09:26:39;24.30;;;16.57;;
19032;SDS011;9649;51.042;13.804;2023-10-19T09:32:10;22.97;;;15.13;;
19032;SDS011;9649;51.042;13.804;2023-10-19T09:38:06;22.13;;;15.17;;
19032;SDS011;9649;51.042;13.804;2023-10-19T09:49:33;19.50;;;13.53;;
19032;SDS011;9649;51.042;13.804;2023-10-19T09:55:42;19.97;;;13.80;;
19032;SDS011;9649;51.042;13.804;2023-10-19T10:01:26;18.90;;;13.13;;
19032;SDS011;9649;51.042;13.804;2023-10-19T10:12:20;22.67;;;15.10;;
19032;SDS011;9649;51.042;13.804;2023-10-19T10:17:33;23.27;;;16.17;;
19032;SDS011;9649;51.042;13.804;2023-10-19T10:40:13;23.53;;;16.27;;
19032;SDS011;9649;51.042;13.804;2023-10-19T10:45:19;22.87;;;16.40;;
19032;SDS011;9649;51.042;13.804;2023-10-19T10:50:48;26.90;;;18.07;;
19032;SDS011;9649;51.042;13.804;2023-10-19T10:55:59;31.43;;;20.67;;
19032;SDS011;9649;51.042;13.804;2023-10-19T11:01:10;27.80;;;18.60;;
19032;SDS011;9649;51.042;13.804;2023-10-19T11:06:15;28.73;;;18.50;;
19032;SDS011;9649;51.042;13.804;2023-10-19T11:11:18;24.47;;;16.37;;
19032;SDS011;9649;51.042;13.804;2023-10-19T11:16:23;25.17;;;15.37;;
19032;SDS011;9649;51.042;13.804;2023-10-19T11:21:27;25.90;;;16.50;;
19032;SDS011;9649;51.042;13.804;2023-10-19T11:26:30;24.60;;;16.63;;
19032;SDS011;9649;51.042;13.804;2023-10-19T11:31:33;22.70;;;16.03;;
19032;SDS011;9649;51.042;13.804;2023-10-19T11:36:42;25.40;;;16.87;;
19032;SDS011;9649;51.042;13.804;2023-10-19T11:41:46;25.03;;;16.37;;
19032;SDS011;9649;51.042;13.804;2023-10-19T11:46:49;23.57;;;15.67;;
19032;SDS011;9649;51.042;13.804;2023-10-19T11:51:53;23.03;;;16.00;;
19032;SDS011;9649;51.042;13.804;2023-10-19T11:56:56;21.07;;;15.40;;
19032;SDS011;9649;51.042;13.804;2023-10-19T12:01:59;22.70;;;15.67;;
19032;SDS011;9649;51.042;13.804;2023-10-19T12:07:06;22.37;;;15.23;;
19032;SDS011;9649;51.042;13.804;2023-10-19T12:12:10;22.33;;;16.07;;
19032;SDS011;9649;51.042;13.804;2023-10-19T12:17:14;21.73;;;15.30;;
19032;SDS011;9649;51.042;13.804;2023-10-19T12:22:20;24.63;;;15.57;;
19032;SDS011;9649;51.042;13.804;2023-10-19T12:27:23;23.67;;;16.27;;
19032;SDS011;9649;51.042;13.804;2023-10-19T12:32:26;24.63;;;17.10;;
19032;SDS011;9649;51.042;13.804;2023-10-19T12:37:31;23.53;;;15.97;;
19032;SDS011;9649;51.042;13.804;2023-10-19T12:42:34;26.43;;;15.10;;
19032;SDS011;9649;51.042;13.804;2023-10-19T12:47:37;21.93;;;15.23;;
19032;SDS011;9649;51.042;13.804;2023-10-19T12:52:41;21.33;;;14.63;;
19032;SDS011;9649;51.042;13.804;2023-10-19T12:57:44;21.93;;;15.63;;
19032;SDS011;9649;51.042;13.804;2023-10-19T13:02:47;23.10;;;15.43;;
19032;SDS011;9649;51.042;13.804;2023-10-19T13:07:52;23.05;;;15.55;;
19032;SDS011;9649;51.042;13.804;2023-10-19T13:12:55;23.40;;;15.77;;
19032;SDS011;9649;51.042;13.804;2023-10-19T13:17:57;21.93;;;15.67;;
19032;SDS011;9649;51.042;13.804;2023-10-19T13:23:02;20.38;;;14.98;;
19032;SDS011;9649;51.042;13.804;2023-10-19T13:28:08;20.02;;;13.32;;
19032;SDS011;9649;51.042;13.804;2023-10-19T13:33:12;18.15;;;12.80;;
19032;SDS011;9649;51.042;13.804;2023-10-19T13:38:16;18.15;;;13.18;;
19032;SDS011;9649;51.042;13.804;2023-10-19T13:43:20;18.52;;;13.45;;
19032;SDS011;9649;51.042;13.804;2023-10-19T13:48:23;18.92;;;13.20;;
19032;SDS011;9649;51.042;13.804;2023-10-19T13:53:28;18.65;;;12.45;;
19032;SDS011;9649;51.042;13.804;2023-10-19T13:58:31;18.30;;;14.13;;
19032;SDS011;9649;51.042;13.804;2023-10-19T14:03:34;23.95;;;14.98;;
19032;SDS011;9649;51.042;13.804;2023-10-19T14:08:40;32.33;;;16.30;;
19032;SDS011;9649;51.042;13.804;2023-10-19T14:13:43;22.73;;;15.70;;
19032;SDS011;9649;51.042;13.804;2023-10-19T14:18:46;27.52;;;16.75;;
19032;SDS011;9649;51.042;13.804;2023-10-19T14:23:50;23.85;;;16.65;;
19032;SDS011;9649;51.042;13.804;2023-10-19T14:28:54;20.75;;;15.23;;
19032;SDS011;9649;51.042;13.804;2023-10-19T14:34:00;23.30;;;16.65;;
19032;SDS011;9649;51.042;13.804;2023-10-19T14:39:04;25.13;;;15.48;;
19032;SDS011;9649;51.042;13.804;2023-10-19T14:44:10;23.73;;;16.95;;
19032;SDS011;9649;51.042;13.804;2023-10-19T14:49:15;26.20;;;17.38;;
19032;SDS011;9649;51.042;13.804;2023-10-19T14:54:21;22.10;;;16.38;;
19032;SDS011;9649;51.042;13.804;2023-10-19T14:59:24;26.77;;;18.20;;
19032;SDS011;9649;51.042;13.804;2023-10-19T15:04:27;26.42;;;17.58;;
19032;SDS011;9649;51.042;13.804;2023-10-19T15:09:31;26.67;;;17.88;;
19032;SDS011;9649;51.042;13.804;2023-10-19T15:14:34;24.83;;;17.33;;
19032;SDS011;9649;51.042;13.804;2023-10-19T15:19:37;26.30;;;18.38;;
19032;SDS011;9649;51.042;13.804;2023-10-19T15:24:41;26.95;;;19.30;;
19032;SDS011;9649;51.042;13.804;2023-10-19T15:29:44;27.47;;;18.87;;
19032;SDS011;9649;51.042;13.804;2023-10-19T15:34:47;31.60;;;21.13;;
19032;SDS011;9649;51.042;13.804;2023-10-19T15:39:52;33.50;;;21.40;;
19032;SDS011;9649;51.042;13.804;2023-10-19T15:44:55;33.03;;;20.93;;
19032;SDS011;9649;51.042;13.804;2023-10-19T15:49:58;32.10;;;21.37;;
19032;SDS011;9649;51.042;13.804;2023-10-19T15:55:02;31.93;;;22.37;;
19032;SDS011;9649;51.042;13.804;2023-10-19T16:00:07;35.13;;;23.23;;
19032;SDS011;9649;51.042;13.804;2023-10-19T16:05:16;32.80;;;23.67;;
19032;SDS011;9649;51.042;13.804;2023-10-19T16:10:25;34.13;;;23.10;;
19032;SDS011;9649;51.042;13.804;2023-10-19T16:20:57;34.53;;;23.50;;
19032;SDS011;9649;51.042;13.804;2023-10-19T16:26:07;37.87;;;24.70;;
19032;SDS011;9649;51.042;13.804;2023-10-19T16:31:21;36.70;;;24.33;;
19032;SDS011;9649;51.042;13.804;2023-10-19T16:36:27;36.30;;;24.00;;
19032;SDS011;9649;51.042;13.804;2023-10-19T16:41:35;42.53;;;25.57;;
19032;SDS011;9649;51.042;13.804;2023-10-19T16:46:38;38.77;;;24.43;;
19032;SDS011;9649;51.042;13.804;2023-10-19T16:51:42;43.33;;;27.23;;
19032;SDS011;9649;51.042;13.804;2023-10-19T16:56:47;41.87;;;26.43;;
19032;SDS011;9649;51.042;13.804;2023-10-19T17:01:49;38.97;;;25.17;;
19032;SDS011;9649;51.042;13.804;2023-10-19T17:06:53;40.73;;;25.67;;
19032;SDS011;9649;51.042;13.804;2023-10-19T17:11:57;41.10;;;26.17;;
19032;SDS011;9649;51.042;13.804;2023-10-19T17:17:01;47.03;;;27.30;;
19032;SDS011;9649;51.042;13.804;2023-10-19T17:22:04;44.43;;;27.20;;
19032;SDS011;9649;51.042;13.804;2023-10-19T17:27:08;40.63;;;25.80;;
19032;SDS011;9649;51.042;13.804;2023-10-19T17:32:12;42.27;;;26.50;;
19032;SDS011;9649;51.042;13.804;2023-10-19T17:37:15;42.83;;;26.57;;
19032;SDS011;9649;51.042;13.804;2023-10-19T17:42:19;40.47;;;25.60;;
19032;SDS011;9649;51.042;13.804;2023-10-19T17:47:23;43.67;;;26.77;;
19032;SDS011;9649;51.042;13.804;2023-10-19T17:52:28;38.63;;;24.80;;
19032;SDS011;9649;51.042;13.804;2023-10-19T17:57:33;46.77;;;26.73;;
19032;SDS011;9649;51.042;13.804;2023-10-19T18:02:35;40.30;;;25.20;;
19032;SDS011;9649;51.042;13.804;2023-10-19T18:07:39;42.40;;;24.47;;
19032;SDS011;9649;51.042;13.804;2023-10-19T18:12:44;43.20;;;25.90;;
19032;SDS011;9649;51.042;13.804;2023-10-19T18:17:47;44.43;;;26.60;;
19032;SDS011;9649;51.042;13.804;2023-10-19T18:22:51;37.87;;;25.07;;
19032;SDS011;9649;51.042;13.804;2023-10-19T18:27:58;41.07;;;24.20;;
19032;SDS011;9649;51.042;13.804;2023-10-19T18:33:03;44.27;;;25.53;;
19032;SDS011;9649;51.042;13.804;2023-10-19T18:38:09;39.37;;;24.63;;
19032;SDS011;9649;51.042;13.804;2023-10-19T18:43:14;45.40;;;25.27;;
19032;SDS011;9649;51.042;13.804;2023-10-19T18:48:17;40.63;;;24.03;;
19032;SDS011;9649;51.042;13.804;2023-10-19T18:53:21;37.77;;;24.03;;
19032;SDS011;9649;51.042;13.804;2023-10-19T18:58:25;41.10;;;25.37;;
19032;SDS011;9649;51.042;13.804;2023-10-19T19:03:31;40.23;;;24.67;;
19032;SDS011;9649;51.042;13.804;2023-10-19T19:08:35;41.63;;;24.17;;
19032;SDS011;9649;51.042;13.804;2023-10-19T19:13:40;44.77;;;24.43;;
19032;SDS011;9649;51.042;13.804;2023-10-19T19:18:43;48.23;;;26.13;;
19032;SDS011;9649;51.042;13.804;2023-10-19T19:23:46;46.13;;;26.23;;
19032;SDS011;9649;51.042;13.804;2023-10-19T19:28:50;44.73;;;26.93;;
19032;SDS011;9649;51.042;13.804;2023-10-19T19:33:53;50.73;;;27.73;;
19032;SDS011;9649;51.042;13.804;2023-10-19T19:38:56;51.80;;;28.20;;
19032;SDS011;9649;51.042;13.804;2023-10-19T19:44:01;52.87;;;29.37;;
19032;SDS011;9649;51.042;13.804;2023-10-19T19:49:04;52.63;;;29.47;;
19032;SDS011;9649;51.042;13.804;2023-10-19T19:54:06;50.60;;;27.17;;
19032;SDS011;9649;51.042;13.804;2023-10-19T19:59:14;50.40;;;28.90;;
19032;SDS011;9649;51.042;13.804;2023-10-19T20:04:17;50.90;;;28.23;;
19032;SDS011;9649;51.042;13.804;2023-10-19T20:09:20;51.03;;;30.00;;
19032;SDS011;9649;51.042;13.804;2023-10-19T20:14:25;49.80;;;30.23;;
19032;SDS011;9649;51.042;13.804;2023-10-19T20:19:28;49.33;;;29.43;;
19032;SDS011;9649;51.042;13.804;2023-10-19T20:24:31;55.23;;;30.63;;
19032;SDS011;9649;51.042;13.804;2023-10-19T20:29:36;58.27;;;31.40;;
19032;SDS011;9649;51.042;13.804;2023-10-19T20:34:38;54.30;;;31.60;;
19032;SDS011;9649;51.042;13.804;2023-10-19T20:39:43;59.93;;;34.20;;
19032;SDS011;9649;51.042;13.804;2023-10-19T20:44:47;62.37;;;34.67;;
19032;SDS011;9649;51.042;13.804;2023-10-19T20:49:50;66.13;;;34.73;;
19032;SDS011;9649;51.042;13.804;2023-10-19T20:54:53;59.37;;;35.67;;
19032;SDS011;9649;51.042;13.804;2023-10-19T20:59:57;64.30;;;36.27;;
19032;SDS011;9649;51.042;13.804;2023-10-19T21:05:00;57.30;;;34.37;;
19032;SDS011;9649;51.042;13.804;2023-10-19T21:10:03;58.03;;;35.37;;
19032;SDS011;9649;51.042;13.804;2023-10-19T21:15:09;64.03;;;37.07;;
19032;SDS011;9649;51.042;13.804;2023-10-19T21:20:15;68.33;;;37.90;;
19032;SDS011;9649;51.042;13.804;2023-10-19T21:25:19;60.57;;;36.13;;
19032;SDS011;9649;51.042;13.804;2023-10-19T21:30:28;60.07;;;36.37;;
19032;SDS011;9649;51.042;13.804;2023-10-19T21:35:32;61.00;;;36.43;;
19032;SDS011;9649;51.042;13.804;2023-10-19T21:40:40;59.97;;;35.23;;
19032;SDS011;9649;51.042;13.804;2023-10-19T21:45:45;58.73;;;35.50;;
19032;SDS011;9649;51.042;13.804;2023-10-19T21:50:48;56.77;;;35.23;;
19032;SDS011;9649;51.042;13.804;2023-10-19T21:55:57;56.20;;;33.00;;
19032;SDS011;9649;51.042;13.804;2023-10-19T22:01:02;59.17;;;34.97;;
19032;SDS011;9649;51.042;13.804;2023-10-19T22:06:07;53.30;;;32.73;;
19032;SDS011;9649;51.042;13.804;2023-10-19T22:11:10;57.50;;;35.93;;
19032;SDS011;9649;51.042;13.804;2023-10-19T22:16:14;59.53;;;36.40;;
19032;SDS011;9649;51.042;13.804;2023-10-19T22:21:17;58.97;;;35.72;;
19032;SDS011;9649;51.042;13.804;2023-10-19T22:26:20;59.80;;;36.17;;
19032;SDS011;9649;51.042;13.804;2023-10-19T22:31:24;58.27;;;35.47;;
19032;SDS011;9649;51.042;13.804;2023-10-19T22:36:27;63.33;;;36.77;;
19032;SDS011;9649;51.042;13.804;2023-10-19T22:41:30;65.72;;;38.40;;
19032;SDS011;9649;51.042;13.804;2023-10-19T22:46:34;63.90;;;36.83;;
19032;SDS011;9649;51.042;13.804;2023-10-19T22:51:37;63.83;;;37.17;;
19032;SDS011;9649;51.042;13.804;2023-10-19T22:56:40;66.30;;;38.40;;
19032;SDS011;9649;51.042;13.804;2023-10-19T23:01:46;64.87;;;37.13;;
19032;SDS011;9649;51.042;13.804;2023-10-19T23:06:49;60.55;;;36.08;;
19032;SDS011;9649;51.042;13.804;2023-10-19T23:11:53;68.07;;;38.77;;
19032;SDS011;9649;51.042;13.804;2023-10-19T23:17:05;66.63;;;38.40;;
19032;SDS011;9649;51.042;13.804;2023-10-19T23:22:10;65.80;;;38.53;;
19032;SDS011;9649;51.042;13.804;2023-10-19T23:27:15;71.13;;;38.33;;
19032;SDS011;9649;51.042;13.804;2023-10-19T23:32:19;65.43;;;37.27;;
19032;SDS011;9649;51.042;13.804;2023-10-19T23:37:24;63.83;;;35.97;;
19032;SDS011;9649;51.042;13.804;2023-10-19T23:42:26;64.87;;;37.03;;
19032;SDS011;9649;51.042;13.804;2023-10-19T23:47:31;70.83;;;38.73;;
19032;SDS011;9649;51.042;13.804;2023-10-19T23:52:34;62.77;;;36.43;;
19032;SDS011;9649;51.042;13.804;2023-10-19T23:57:38;61.23;;;36.13;;
